sensor_id;sensor_type;location;lat;lon;timestamp;pressure;altitude;pressure_sealevel;temperature;humidity
45350;BME280;31086;51.702;-1.106;2022-09-14T00:00:52;100177.05;;;18.32;67.70
45350;BME280;31086;51.702;-1.106;2022-09-14T00:03:20;100179.32;;;18.39;66.95
45350;BME280;31086;51.702;-1.106;2022-09-14T00:05:48;100179.28;;;18.87;67.02
45350;BME280;31086;51.702;-1.106;2022-09-14T00:08:15;100176.46;;;18.59;68.09
45350;BME280;31086;51.702;-1.106;2022-09-14T00:10:43;100174.90;;;18.14;68.58
45350;BME280;31086;51.702;-1.106;2022-09-14T00:13:13;100174.63;;;18.12;68.72
45350;BME280;31086;51.702;-1.106;2022-09-14T00:15:42;100163.10;;;18.04;69.11
45350;BME280;31086;51.702;-1.106;2022-09-14T00:18:10;100156.98;;;18.77;67.25
45350;BME280;31086;51.702;-1.106;2022-09-14T00:20:38;100158.96;;;18.82;66.90
45350;BME280;31086;51.702;-1.106;2022-09-14T00:23:05;100158.54;;;18.56;67.40
45350;BME280;31086;51.702;-1.106;2022-09-14T00:25:32;100153.85;;;18.48;68.30
45350;BME280;31086;51.702;-1.106;2022-09-14T00:28:00;100152.29;;;19.00;66.89
45350;BME280;31086;51.702;-1.106;2022-09-14T00:30:27;100142.77;;;18.62;67.67
45350;BME280;31086;51.702;-1.106;2022-09-14T00:32:55;100140.02;;;18.58;67.88
45350;BME280;31086;51.702;-1.106;2022-09-14T00:35:22;100133.30;;;18.33;67.88
45350;BME280;31086;51.702;-1.106;2022-09-14T00:37:49;100135.92;;;18.20;68.01
45350;BME280;31086;51.702;-1.106;2022-09-14T00:40:17;100133.73;;;18.21;68.90
45350;BME280;31086;51.702;-1.106;2022-09-14T00:42:44;100132.81;;;18.32;67.99
45350;BME280;31086;51.702;-1.106;2022-09-14T00:45:16;100128.35;;;18.64;67.67
45350;BME280;31086;51.702;-1.106;2022-09-14T00:47:47;100130.01;;;18.37;68.69
45350;BME280;31086;51.702;-1.106;2022-09-14T00:50:16;100130.10;;;18.33;68.07
45350;BME280;31086;51.702;-1.106;2022-09-14T00:52:47;100126.46;;;18.34;68.95
45350;BME280;31086;51.702;-1.106;2022-09-14T00:55:17;100124.36;;;18.25;68.16
45350;BME280;31086;51.702;-1.106;2022-09-14T00:57:48;100125.16;;;18.61;67.51
45350;BME280;31086;51.702;-1.106;2022-09-14T01:00:19;100124.30;;;18.65;67.34
45350;BME280;31086;51.702;-1.106;2022-09-14T01:02:46;100119.61;;;18.65;66.93
45350;BME280;31086;51.702;-1.106;2022-09-14T01:05:14;100120.43;;;19.24;65.87
45350;BME280;31086;51.702;-1.106;2022-09-14T01:07:58;100119.61;;;18.49;66.66
45350;BME280;31086;51.702;-1.106;2022-09-14T01:10:35;100112.53;;;18.71;66.92
45350;BME280;31086;51.702;-1.106;2022-09-14T01:13:16;100108.82;;;18.39;67.82
45350;BME280;31086;51.702;-1.106;2022-09-14T01:15:54;100108.34;;;18.11;68.17
45350;BME280;31086;51.702;-1.106;2022-09-14T01:18:26;100103.61;;;18.06;68.67
45350;BME280;31086;51.702;-1.106;2022-09-14T01:20:59;100102.08;;;17.95;68.98
45350;BME280;31086;51.702;-1.106;2022-09-14T01:23:32;100100.02;;;17.99;68.60
45350;BME280;31086;51.702;-1.106;2022-09-14T01:26:25;100099.46;;;18.40;68.34
45350;BME280;31086;51.702;-1.106;2022-09-14T01:29:01;100096.86;;;18.35;68.02
45350;BME280;31086;51.702;-1.106;2022-09-14T01:31:35;100087.89;;;18.57;67.49
45350;BME280;31086;51.702;-1.106;2022-09-14T01:34:09;100084.85;;;18.54;67.36
45350;BME280;31086;51.702;-1.106;2022-09-14T01:36:42;100085.61;;;18.11;68.73
45350;BME280;31086;51.702;-1.106;2022-09-14T01:39:13;100089.56;;;18.39;67.71
45350;BME280;31086;51.702;-1.106;2022-09-14T01:41:41;100088.44;;;18.56;67.18
45350;BME280;31086;51.702;-1.106;2022-09-14T01:44:13;100084.64;;;18.44;67.73
45350;BME280;31086;51.702;-1.106;2022-09-14T01:46:44;100081.90;;;18.63;67.51
45350;BME280;31086;51.702;-1.106;2022-09-14T01:49:15;100077.08;;;18.35;67.71
45350;BME280;31086;51.702;-1.106;2022-09-14T01:51:46;100074.42;;;18.42;67.33
45350;BME280;31086;51.702;-1.106;2022-09-14T01:54:18;100068.49;;;18.67;66.43
45350;BME280;31086;51.702;-1.106;2022-09-14T01:56:50;100065.58;;;18.78;66.60
45350;BME280;31086;51.702;-1.106;2022-09-14T01:59:21;100065.99;;;18.95;66.04
45350;BME280;31086;51.702;-1.106;2022-09-14T02:01:52;100066.36;;;18.74;66.91
45350;BME280;31086;51.702;-1.106;2022-09-14T02:04:26;100060.40;;;18.58;66.07
45350;BME280;31086;51.702;-1.106;2022-09-14T02:06:54;100056.95;;;18.84;66.48
45350;BME280;31086;51.702;-1.106;2022-09-14T02:09:22;100057.02;;;18.63;66.46
45350;BME280;31086;51.702;-1.106;2022-09-14T02:11:50;100057.40;;;18.23;67.76
45350;BME280;31086;51.702;-1.106;2022-09-14T02:14:17;100054.27;;;18.23;67.38
45350;BME280;31086;51.702;-1.106;2022-09-14T02:16:44;100050.84;;;18.37;67.66
45350;BME280;31086;51.702;-1.106;2022-09-14T02:19:12;100046.83;;;18.31;67.55
45350;BME280;31086;51.702;-1.106;2022-09-14T02:21:40;100050.33;;;18.02;68.42
45350;BME280;31086;51.702;-1.106;2022-09-14T02:24:08;100051.33;;;17.87;68.49
45350;BME280;31086;51.702;-1.106;2022-09-14T02:26:37;100051.83;;;18.09;68.08
45350;BME280;31086;51.702;-1.106;2022-09-14T02:29:05;100056.66;;;17.93;68.45
45350;BME280;31086;51.702;-1.106;2022-09-14T02:31:40;100059.68;;;17.68;69.14
45350;BME280;31086;51.702;-1.106;2022-09-14T02:34:18;100057.64;;;18.22;68.46
45350;BME280;31086;51.702;-1.106;2022-09-14T02:36:52;100057.82;;;17.92;68.23
45350;BME280;31086;51.702;-1.106;2022-09-14T02:39:29;100053.24;;;17.62;69.49
45350;BME280;31086;51.702;-1.106;2022-09-14T02:42:06;100052.92;;;17.74;68.88
45350;BME280;31086;51.702;-1.106;2022-09-14T02:44:42;100053.21;;;18.28;68.75
45350;BME280;31086;51.702;-1.106;2022-09-14T02:47:16;100046.08;;;18.03;68.49
